createdAt,value
2018-06-29T00:00:36.919Z,21.08
2018-06-29T00:01:37.019Z,21.06
2018-06-29T00:02:37.122Z,20.98
2018-06-29T00:03:37.219Z,21.04
2018-06-29T00:04:37.320Z,21.02
2018-06-29T00:05:37.419Z,20.99
2018-06-29T00:06:37.521Z,20.99
2018-06-29T00:07:37.624Z,20.86
2018-06-29T00:08:37.742Z,20.89
2018-06-29T00:09:37.842Z,20.81
2018-06-29T00:10:37.949Z,20.87
2018-06-29T00:11:38.049Z,20.84
2018-06-29T00:12:38.150Z,20.83
2018-06-29T00:13:38.252Z,20.84
2018-06-29T00:14:38.354Z,20.83
2018-06-29T00:15:38.457Z,20.77
2018-06-29T00:16:38.636Z,20.84
2018-06-29T00:17:38.654Z,20.84
2018-06-29T00:18:38.756Z,20.68
2018-06-29T00:19:38.856Z,20.71
2018-06-29T00:20:38.955Z,20.65
2018-06-29T00:21:39.059Z,20.58
2018-06-29T00:22:39.185Z,20.68
2018-06-29T00:23:39.286Z,20.58
2018-06-29T00:24:39.386Z,20.53
2018-06-29T00:25:39.489Z,20.59
2018-06-29T00:26:39.591Z,20.58
2018-06-29T00:27:39.693Z,20.47
2018-06-29T00:28:39.796Z,20.58
2018-06-29T00:29:39.895Z,20.47
2018-06-29T00:30:39.996Z,20.41
2018-06-29T00:31:40.095Z,20.46
2018-06-29T00:32:40.191Z,20.39
2018-06-29T00:33:40.302Z,20.41
2018-06-29T00:34:40.396Z,20.33
2018-06-29T00:35:40.496Z,20.47
2018-06-29T00:36:40.600Z,20.39
2018-06-29T00:37:40.701Z,20.28
2018-06-29T00:38:40.799Z,20.34
2018-06-29T00:39:40.902Z,20.25
2018-06-29T00:40:41.001Z,20.28
2018-06-29T00:41:41.104Z,20.27
2018-06-29T00:42:41.205Z,20.30
2018-06-29T00:43:41.304Z,20.23
2018-06-29T00:44:41.400Z,20.21
2018-06-29T00:45:41.508Z,20.12
2018-06-29T00:46:41.607Z,20.13
2018-06-29T00:47:41.706Z,20.08
2018-06-29T00:48:41.808Z,20.15
2018-06-29T00:49:41.909Z,20.09
2018-06-29T00:50:42.007Z,20.05
2018-06-29T00:51:42.109Z,19.98
2018-06-29T00:52:42.209Z,19.98
2018-06-29T00:53:42.310Z,19.98
2018-06-29T00:54:42.479Z,19.87
2018-06-29T00:55:42.513Z,19.91
2018-06-29T00:56:42.615Z,19.88
2018-06-29T00:57:42.724Z,19.88
2018-06-29T00:58:42.825Z,19.88
2018-06-29T00:59:42.928Z,19.88
2018-06-29T01:00:43.025Z,19.88
2018-06-29T01:01:43.130Z,19.88
2018-06-29T01:02:43.225Z,19.87
2018-06-29T01:03:43.324Z,19.83
2018-06-29T01:04:43.438Z,19.84
2018-06-29T01:05:43.540Z,19.76
2018-06-29T01:06:43.639Z,19.75
2018-06-29T01:07:43.739Z,19.83
2018-06-29T01:08:43.839Z,19.72
2018-06-29T01:09:43.938Z,19.73
2018-06-29T01:10:44.039Z,19.69
2018-06-29T01:11:44.147Z,19.69
2018-06-29T01:12:44.248Z,19.70
2018-06-29T01:13:44.344Z,19.73
2018-06-29T01:14:44.444Z,19.63
2018-06-29T01:15:44.544Z,19.58
2018-06-29T01:16:44.646Z,19.66
2018-06-29T01:17:44.745Z,19.61
2018-06-29T01:18:44.859Z,19.70
2018-06-29T01:19:44.957Z,19.63
2018-06-29T01:20:45.059Z,19.58
2018-06-29T01:21:45.160Z,19.63
2018-06-29T01:22:45.258Z,19.68
2018-06-29T01:23:45.360Z,19.58
2018-06-29T01:24:45.456Z,19.61
2018-06-29T01:25:45.568Z,19.58
2018-06-29T01:26:45.668Z,19.65
2018-06-29T01:27:45.768Z,19.66
2018-06-29T01:28:45.941Z,19.70
2018-06-29T01:29:45.965Z,19.72
2018-06-29T01:30:46.066Z,19.60
2018-06-29T01:31:46.167Z,19.63
2018-06-29T01:32:46.283Z,19.58
2018-06-29T01:33:46.380Z,19.65
2018-06-29T01:34:46.478Z,19.70
2018-06-29T01:35:46.579Z,19.65
2018-06-29T01:36:46.681Z,19.66
2018-06-29T01:37:46.779Z,19.66
2018-06-29T01:38:46.882Z,19.65
2018-06-29T01:39:46.993Z,19.70
2018-06-29T01:40:47.091Z,19.68
2018-06-29T01:41:47.191Z,19.68
2018-06-29T01:42:47.292Z,19.66
2018-06-29T01:43:47.395Z,19.75
2018-06-29T01:44:47.492Z,19.78
2018-06-29T01:45:47.589Z,19.69
2018-06-29T01:46:47.686Z,19.76
2018-06-29T01:47:47.787Z,19.75
2018-06-29T01:48:47.887Z,19.68
2018-06-29T01:49:47.986Z,19.63
2018-06-29T01:50:48.085Z,19.70
2018-06-29T01:51:48.182Z,19.66
2018-06-29T01:52:48.287Z,19.70
2018-06-29T01:53:48.381Z,19.65
2018-06-29T01:54:48.479Z,19.78
2018-06-29T01:55:48.582Z,19.76
2018-06-29T01:56:48.679Z,19.78
2018-06-29T01:57:48.774Z,19.79
2018-06-29T01:58:48.868Z,19.79
2018-06-29T01:59:48.975Z,19.79
2018-06-29T02:00:49.080Z,19.80
2018-06-29T02:01:49.214Z,19.83
2018-06-29T02:02:49.313Z,19.79
2018-06-29T02:03:49.414Z,19.78
2018-06-29T02:04:49.505Z,19.78
2018-06-29T02:05:49.614Z,19.80
2018-06-29T02:06:49.714Z,19.88
2018-06-29T02:07:49.831Z,19.84
2018-06-29T02:08:49.924Z,19.87
2018-06-29T02:09:50.024Z,19.84
2018-06-29T02:10:50.132Z,19.84
2018-06-29T02:11:50.216Z,19.80
2018-06-29T02:12:50.338Z,19.79
2018-06-29T02:13:50.432Z,19.83
2018-06-29T02:14:50.551Z,19.79
2018-06-29T02:15:50.629Z,19.76
2018-06-29T02:16:50.729Z,19.90
2018-06-29T02:17:50.834Z,19.84
2018-06-29T02:18:50.930Z,19.78
2018-06-29T02:19:51.035Z,19.86
2018-06-29T02:20:51.140Z,19.79
2018-06-29T02:21:51.232Z,19.83
2018-06-29T02:22:51.328Z,19.78
2018-06-29T02:23:51.412Z,19.86
2018-06-29T02:24:51.507Z,19.73
2018-06-29T02:25:51.609Z,19.48
2018-06-29T02:26:51.709Z,19.32
2018-06-29T02:27:51.810Z,19.31
2018-06-29T02:28:51.903Z,19.33
2018-06-29T02:29:52.011Z,19.29
2018-06-29T02:30:52.185Z,19.35
2018-06-29T02:31:52.219Z,19.43
2018-06-29T02:32:52.332Z,19.42
2018-06-29T02:33:52.442Z,19.47
2018-06-29T02:34:52.560Z,19.39
2018-06-29T02:35:52.682Z,19.42
2018-06-29T02:36:52.779Z,19.46
2018-06-29T02:37:52.879Z,19.54
2018-06-29T02:38:52.990Z,19.42
2018-06-29T02:39:53.089Z,19.40
2018-06-29T02:40:53.205Z,19.46
2018-06-29T02:41:53.294Z,19.47
2018-06-29T02:42:53.405Z,19.54
2018-06-29T02:43:53.505Z,19.53
2018-06-29T02:44:53.595Z,19.60
2018-06-29T02:45:53.694Z,19.57
2018-06-29T02:46:53.805Z,19.61
2018-06-29T02:47:53.901Z,19.53
2018-06-29T02:48:54.005Z,19.63
2018-06-29T02:49:54.106Z,19.54
2018-06-29T02:50:54.208Z,19.40
2018-06-29T02:51:54.314Z,19.43
2018-06-29T02:52:54.413Z,19.51
2018-06-29T02:53:54.507Z,19.50
2018-06-29T02:54:54.616Z,19.50
2018-06-29T02:55:54.713Z,19.48
2018-06-29T02:56:54.813Z,19.51
2018-06-29T02:57:54.914Z,19.53
2018-06-29T02:58:55.010Z,19.51
2018-06-29T02:59:55.118Z,19.51
2018-06-29T03:00:55.203Z,19.47
2018-06-29T03:01:55.299Z,19.42
2018-06-29T03:02:55.400Z,19.46
2018-06-29T03:03:55.511Z,19.36
2018-06-29T03:04:55.628Z,19.35
2018-06-29T03:05:55.734Z,19.36
2018-06-29T03:06:55.831Z,19.25
2018-06-29T03:07:55.934Z,19.25
2018-06-29T03:08:56.034Z,19.17
2018-06-29T03:09:56.129Z,19.21
2018-06-29T03:10:56.227Z,19.31
2018-06-29T03:11:56.322Z,19.20
2018-06-29T03:12:56.417Z,19.36
2018-06-29T03:13:56.516Z,19.36
2018-06-29T03:14:56.617Z,19.28
2018-06-29T03:15:56.710Z,19.33
2018-06-29T03:16:56.810Z,19.39
2018-06-29T03:17:56.906Z,19.43
2018-06-29T03:18:57.010Z,19.39
2018-06-29T03:19:57.114Z,19.47
2018-06-29T03:20:57.212Z,19.39
2018-06-29T03:21:57.316Z,19.54
2018-06-29T03:22:57.410Z,19.53
2018-06-29T03:23:57.515Z,19.43
2018-06-29T03:24:57.612Z,19.43
2018-06-29T03:25:57.708Z,19.57
2018-06-29T03:26:57.810Z,19.60
2018-06-29T03:27:57.905Z,19.51
2018-06-29T03:28:57.999Z,19.58
2018-06-29T03:29:58.104Z,19.55
2018-06-29T03:30:58.206Z,19.51
2018-06-29T03:31:58.309Z,19.55
2018-06-29T03:32:58.426Z,19.57
2018-06-29T03:33:58.530Z,19.57
2018-06-29T03:34:58.626Z,19.54
2018-06-29T03:35:58.724Z,19.55
2018-06-29T03:36:58.822Z,19.53
2018-06-29T03:37:58.925Z,19.51
2018-06-29T03:38:59.022Z,19.42
2018-06-29T03:39:59.122Z,19.40
2018-06-29T03:40:59.228Z,19.39
2018-06-29T03:41:59.329Z,19.54
2018-06-29T03:42:59.430Z,19.47
2018-06-29T03:43:59.530Z,19.50
2018-06-29T03:44:59.629Z,19.54
2018-06-29T03:45:59.729Z,19.54
2018-06-29T03:46:59.830Z,19.51
2018-06-29T03:47:59.927Z,19.57
2018-06-29T03:49:00.030Z,19.57
2018-06-29T03:50:00.125Z,19.54
2018-06-29T03:51:00.223Z,19.48
2018-06-29T03:52:00.324Z,19.58
2018-06-29T03:53:00.425Z,19.60
2018-06-29T03:54:00.524Z,19.60
2018-06-29T03:55:00.624Z,19.58
2018-06-29T03:56:00.723Z,19.57
2018-06-29T03:57:00.824Z,19.43
2018-06-29T03:58:00.923Z,19.42
2018-06-29T03:59:01.023Z,19.21
2018-06-29T04:00:01.128Z,19.36
2018-06-29T04:01:01.227Z,19.33
2018-06-29T04:02:01.330Z,19.35
2018-06-29T04:03:01.468Z,19.39
2018-06-29T04:04:01.529Z,19.43
2018-06-29T04:05:01.632Z,19.39
2018-06-29T04:06:01.732Z,19.42
2018-06-29T04:07:01.832Z,19.54
2018-06-29T04:08:01.932Z,19.51
2018-06-29T04:09:02.028Z,19.58
2018-06-29T04:10:02.132Z,19.65
2018-06-29T04:11:02.234Z,19.65
2018-06-29T04:12:02.335Z,19.70
2018-06-29T04:13:02.550Z,19.68
2018-06-29T04:14:02.542Z,19.65
2018-06-29T04:15:02.638Z,19.69
2018-06-29T04:16:02.740Z,19.54
2018-06-29T04:17:02.837Z,19.48
2018-06-29T04:18:02.938Z,19.21
2018-06-29T04:19:03.042Z,19.31
2018-06-29T04:20:03.140Z,19.18
2018-06-29T04:21:03.240Z,19.20
2018-06-29T04:22:03.338Z,18.99
2018-06-29T04:23:03.439Z,19.02
2018-06-29T04:24:03.535Z,19.02
2018-06-29T04:25:03.637Z,19.15
2018-06-29T04:26:03.737Z,19.21
2018-06-29T04:27:03.837Z,19.18
2018-06-29T04:28:03.938Z,19.33
2018-06-29T04:29:04.037Z,19.31
2018-06-29T04:30:04.134Z,19.25
2018-06-29T04:31:04.232Z,19.39
2018-06-29T04:32:04.334Z,19.40
2018-06-29T04:33:04.434Z,19.38
2018-06-29T04:34:04.540Z,19.36
2018-06-29T04:35:04.638Z,19.42
2018-06-29T04:36:04.743Z,19.42
2018-06-29T04:37:04.843Z,19.43
2018-06-29T04:38:04.944Z,19.50
2018-06-29T04:39:05.043Z,19.39
2018-06-29T04:40:05.146Z,19.40
2018-06-29T04:41:05.242Z,19.43
2018-06-29T04:42:05.343Z,19.53
2018-06-29T04:43:05.448Z,19.54
2018-06-29T04:44:05.549Z,19.54
2018-06-29T04:45:05.651Z,19.51
2018-06-29T04:46:05.750Z,19.54
2018-06-29T04:47:05.855Z,19.54
2018-06-29T04:48:05.961Z,19.54
2018-06-29T04:49:06.058Z,19.57
2018-06-29T04:50:06.166Z,19.65
2018-06-29T04:51:06.267Z,19.57
2018-06-29T04:52:06.373Z,19.51
2018-06-29T04:53:06.469Z,19.51
2018-06-29T04:54:06.572Z,19.60
2018-06-29T04:55:06.669Z,19.58
2018-06-29T04:56:06.772Z,19.69
2018-06-29T04:57:06.875Z,19.70
2018-06-29T04:58:06.976Z,19.76
2018-06-29T04:59:07.075Z,19.79
2018-06-29T05:00:07.176Z,19.83
2018-06-29T05:01:07.279Z,19.78
2018-06-29T05:02:07.376Z,19.83
2018-06-29T05:03:07.475Z,19.80
2018-06-29T05:04:07.574Z,19.68
2018-06-29T05:05:07.680Z,19.70
2018-06-29T05:06:07.783Z,19.66
2018-06-29T05:07:07.887Z,19.73
2018-06-29T05:08:07.988Z,19.78
2018-06-29T05:09:08.090Z,19.79
2018-06-29T05:10:08.193Z,19.84
2018-06-29T05:11:08.290Z,19.84
2018-06-29T05:12:08.395Z,19.87
2018-06-29T05:13:08.496Z,19.84
2018-06-29T05:14:08.597Z,19.84
2018-06-29T05:15:08.701Z,19.91
2018-06-29T05:16:08.804Z,19.95
2018-06-29T05:17:08.901Z,20.02
2018-06-29T05:18:09.005Z,20.15
2018-06-29T05:19:09.102Z,20.24
2018-06-29T05:20:09.204Z,20.16
2018-06-29T05:21:09.305Z,20.10
2018-06-29T05:22:09.406Z,20.24
2018-06-29T05:23:09.504Z,20.16
2018-06-29T05:24:09.607Z,20.27
2018-06-29T05:25:09.727Z,20.58
2018-06-29T05:26:09.829Z,21.11
2018-06-29T05:27:09.932Z,21.95
2018-06-29T05:28:10.030Z,22.56
2018-06-29T05:29:10.130Z,23.20
2018-06-29T05:30:10.232Z,23.83
2018-06-29T05:31:10.341Z,24.22
2018-06-29T05:32:10.440Z,24.75
2018-06-29T05:33:10.545Z,25.13
2018-06-29T05:34:10.648Z,25.49
2018-06-29T05:35:10.753Z,25.86
2018-06-29T05:36:10.859Z,26.35
2018-06-29T05:37:10.961Z,26.58
2018-06-29T05:38:11.066Z,26.87
2018-06-29T05:39:11.171Z,27.28
2018-06-29T05:40:11.272Z,27.53
2018-06-29T05:41:11.374Z,27.69
2018-06-29T05:42:11.482Z,28.06
2018-06-29T05:43:11.589Z,28.31
2018-06-29T05:44:11.694Z,28.54
2018-06-29T05:45:11.799Z,28.87
2018-06-29T05:46:11.936Z,29.15
2018-06-29T05:47:12.003Z,29.45
2018-06-29T05:48:12.122Z,29.68
2018-06-29T05:49:12.258Z,29.68
2018-06-29T05:50:12.342Z,29.90
2018-06-29T05:51:12.449Z,30.18
2018-06-29T05:52:12.559Z,30.30
2018-06-29T05:53:12.671Z,30.57
2018-06-29T05:54:12.782Z,30.62
2018-06-29T05:55:12.890Z,30.74
2018-06-29T05:56:13.006Z,30.96
2018-06-29T05:57:13.112Z,31.12
2018-06-29T05:58:13.221Z,30.84
2018-06-29T05:59:13.338Z,30.62
2018-06-29T06:00:13.442Z,30.65
2018-06-29T06:01:13.552Z,30.31
2018-06-29T06:02:13.665Z,30.54
2018-06-29T06:03:13.777Z,30.61
2018-06-29T06:04:13.889Z,30.07
2018-06-29T06:05:14.005Z,30.14
2018-06-29T06:06:14.115Z,30.08
2018-06-29T06:07:14.230Z,30.34
2018-06-29T06:08:14.342Z,30.19
2018-06-29T06:09:14.457Z,29.44
2018-06-29T06:10:14.570Z,29.28
2018-06-29T06:11:14.683Z,29.20
2018-06-29T06:12:14.796Z,29.31
2018-06-29T06:13:14.909Z,29.11
2018-06-29T06:14:15.025Z,28.68
2018-06-29T06:15:15.135Z,28.93
2018-06-29T06:16:15.251Z,29.01
2018-06-29T06:17:15.364Z,28.60
2018-06-29T06:18:15.480Z,28.44
2018-06-29T06:19:15.589Z,28.17
2018-06-29T06:20:15.707Z,27.67
2018-06-29T06:21:15.858Z,27.69
2018-06-29T06:22:15.933Z,27.84
2018-06-29T06:23:16.043Z,27.33
2018-06-29T06:24:16.157Z,27.33
2018-06-29T06:25:16.275Z,27.51
2018-06-29T06:26:16.369Z,27.59
2018-06-29T06:27:16.498Z,27.36
2018-06-29T06:28:16.610Z,27.14
2018-06-29T06:29:16.720Z,26.72
2018-06-29T06:30:16.834Z,26.37
2018-06-29T06:31:16.947Z,26.32
2018-06-29T06:32:17.059Z,26.47
2018-06-29T06:33:17.173Z,26.32
2018-06-29T06:34:17.283Z,26.31
2018-06-29T06:35:17.391Z,26.46
2018-06-29T06:36:17.503Z,26.52
2018-06-29T06:37:17.613Z,25.90
2018-06-29T06:38:17.722Z,25.86
2018-06-29T06:39:17.833Z,25.91
2018-06-29T06:40:17.943Z,25.98
2018-06-29T06:41:18.051Z,26.01
2018-06-29T06:42:18.163Z,26.15
2018-06-29T06:43:18.269Z,25.87
2018-06-29T06:44:18.376Z,25.86
2018-06-29T06:45:18.488Z,25.68
2018-06-29T06:46:18.597Z,25.46
2018-06-29T06:47:18.709Z,25.49
2018-06-29T06:48:18.800Z,25.56
2018-06-29T06:49:18.900Z,25.68
2018-06-29T06:50:19.032Z,25.77
2018-06-29T06:51:19.156Z,25.83
2018-06-29T06:52:19.259Z,26.02
2018-06-29T06:53:19.393Z,25.94
2018-06-29T06:54:19.553Z,25.52
2018-06-29T06:55:19.659Z,25.52
2018-06-29T06:56:19.761Z,25.22
2018-06-29T06:57:19.903Z,25.07
2018-06-29T06:58:20.013Z,25.05
2018-06-29T06:59:20.172Z,25.27
2018-06-29T07:00:20.244Z,25.31
2018-06-29T07:01:20.351Z,25.42
2018-06-29T07:02:20.459Z,25.28
2018-06-29T07:03:20.594Z,25.02
2018-06-29T07:04:20.701Z,25.02
2018-06-29T07:05:20.836Z,25.06
2018-06-29T07:06:20.939Z,24.45
2018-06-29T07:07:21.042Z,24.14
2018-06-29T07:08:21.195Z,24.19
2018-06-29T07:09:21.193Z,24.31
2018-06-29T07:10:21.293Z,24.34
2018-06-29T07:11:21.390Z,24.22
2018-06-29T07:12:21.515Z,24.35
2018-06-29T07:13:21.631Z,24.64
2018-06-29T07:14:21.738Z,24.67
2018-06-29T07:15:21.830Z,24.87
2018-06-29T07:16:21.928Z,24.49
2018-06-29T07:17:22.051Z,24.68
2018-06-29T07:18:22.228Z,24.76
2018-06-29T07:19:22.245Z,24.95
2018-06-29T07:20:22.333Z,24.82
2018-06-29T07:21:22.432Z,24.59
2018-06-29T07:22:22.584Z,24.61
2018-06-29T07:23:22.679Z,24.67
2018-06-29T07:24:22.789Z,24.87
2018-06-29T07:25:22.893Z,24.98
2018-06-29T07:26:23.000Z,25.22
2018-06-29T07:27:23.106Z,25.47
2018-06-29T07:28:23.215Z,25.42
2018-06-29T07:29:23.319Z,25.42
2018-06-29T07:30:23.412Z,25.54
2018-06-29T07:31:23.513Z,25.42
2018-06-29T07:32:23.613Z,25.39
2018-06-29T07:33:23.725Z,25.31
2018-06-29T07:34:23.854Z,25.43
2018-06-29T07:35:23.972Z,25.56
2018-06-29T07:36:24.075Z,25.68
2018-06-29T07:37:24.186Z,25.47
2018-06-29T07:38:24.303Z,25.69
2018-06-29T07:39:24.452Z,25.83
2018-06-29T07:40:24.555Z,25.82
2018-06-29T07:41:24.702Z,25.86
2018-06-29T07:42:24.803Z,25.83
2018-06-29T07:43:24.947Z,25.74
2018-06-29T07:44:25.058Z,25.79
2018-06-29T07:45:25.189Z,25.86
2018-06-29T07:46:25.295Z,25.87
2018-06-29T07:47:25.398Z,25.93
2018-06-29T07:48:25.533Z,25.80
2018-06-29T07:49:25.639Z,25.69
2018-06-29T07:50:25.747Z,25.47
2018-06-29T07:51:25.835Z,25.56
2018-06-29T07:52:25.935Z,25.44
2018-06-29T07:53:26.069Z,25.64
2018-06-29T07:54:26.168Z,25.74
2018-06-29T07:55:26.272Z,25.89
2018-06-29T07:56:26.384Z,25.99
2018-06-29T07:57:26.489Z,25.83
2018-06-29T07:58:26.773Z,25.90
2018-06-29T07:59:26.701Z,25.98
2018-06-29T08:00:26.802Z,25.98
2018-06-29T08:01:26.890Z,26.22
2018-06-29T08:02:27.005Z,26.27
2018-06-29T08:03:27.105Z,26.29
2018-06-29T08:04:27.276Z,26.39
2018-06-29T08:05:27.267Z,26.32
2018-06-29T08:06:27.368Z,26.37
2018-06-29T08:07:27.496Z,26.36
2018-06-29T08:08:27.601Z,26.47
2018-06-29T08:09:27.700Z,26.54
2018-06-29T08:10:27.800Z,26.62
2018-06-29T08:11:27.930Z,26.61
2018-06-29T08:12:28.020Z,26.73
2018-06-29T08:13:28.148Z,26.96
2018-06-29T08:14:28.251Z,26.80
2018-06-29T08:15:28.359Z,26.98
2018-06-29T08:16:28.467Z,27.06
2018-06-29T08:17:28.554Z,26.98
2018-06-29T08:18:28.702Z,26.69
2018-06-29T08:19:28.794Z,26.69
2018-06-29T08:20:28.919Z,26.54
2018-06-29T08:21:29.015Z,26.59
2018-06-29T08:22:29.156Z,26.74
2018-06-29T08:23:29.248Z,26.80
2018-06-29T08:24:29.340Z,26.64
2018-06-29T08:25:29.451Z,26.69
2018-06-29T08:26:29.561Z,26.77
2018-06-29T08:27:29.664Z,26.57
2018-06-29T08:28:29.774Z,26.74
2018-06-29T08:29:29.883Z,26.74
2018-06-29T08:30:30.009Z,26.87
2018-06-29T08:31:30.122Z,26.46
2018-06-29T08:32:30.228Z,26.35
2018-06-29T08:33:30.331Z,26.40
2018-06-29T08:34:30.426Z,26.25
2018-06-29T08:35:30.543Z,25.84
2018-06-29T08:36:30.664Z,25.83
2018-06-29T08:37:30.760Z,25.84
2018-06-29T08:38:30.885Z,25.99
2018-06-29T08:39:30.965Z,25.87
2018-06-29T08:40:31.074Z,25.86
2018-06-29T08:41:31.206Z,26.05
2018-06-29T08:42:31.315Z,26.21
2018-06-29T08:43:31.418Z,26.32
2018-06-29T08:44:31.529Z,26.46
2018-06-29T08:45:31.632Z,26.62
2018-06-29T08:46:31.736Z,26.46
2018-06-29T08:47:31.837Z,26.52
2018-06-29T08:48:31.947Z,26.62
2018-06-29T08:49:32.096Z,26.58
2018-06-29T08:50:32.147Z,26.72
2018-06-29T08:51:32.248Z,26.52
2018-06-29T08:52:32.358Z,26.47
2018-06-29T08:53:32.458Z,26.46
2018-06-29T08:54:32.566Z,26.62
2018-06-29T08:55:32.683Z,26.67
2018-06-29T08:56:32.789Z,26.73
2018-06-29T08:57:32.912Z,26.83
2018-06-29T08:58:33.021Z,27.04
2018-06-29T08:59:33.119Z,27.09
2018-06-29T09:00:33.225Z,27.28
2018-06-29T09:01:33.323Z,27.39
2018-06-29T09:02:33.427Z,27.38
2018-06-29T09:03:33.536Z,27.29
2018-06-29T09:04:33.657Z,27.35
2018-06-29T09:05:33.768Z,27.39
2018-06-29T09:06:33.849Z,27.24
2018-06-29T09:07:33.958Z,27.10
2018-06-29T09:08:34.091Z,27.13
2018-06-29T09:09:34.161Z,27.24
2018-06-29T09:10:34.305Z,27.23
2018-06-29T09:11:34.341Z,27.28
2018-06-29T09:12:34.435Z,27.14
2018-06-29T09:13:34.566Z,27.09
2018-06-29T09:14:34.670Z,27.09
2018-06-29T09:15:34.782Z,27.14
2018-06-29T09:16:34.887Z,27.23
2018-06-29T09:17:34.992Z,27.28
2018-06-29T09:18:35.102Z,27.24
2018-06-29T09:19:35.208Z,27.21
2018-06-29T09:20:35.313Z,27.41
2018-06-29T09:21:35.410Z,27.54
2018-06-29T09:22:35.517Z,27.57
2018-06-29T09:23:35.624Z,27.84
2018-06-29T09:24:35.732Z,27.86
2018-06-29T09:25:35.835Z,27.98
2018-06-29T09:26:35.961Z,27.99
2018-06-29T09:27:36.069Z,28.01
2018-06-29T09:28:36.175Z,27.77
2018-06-29T09:29:36.283Z,27.69
2018-06-29T09:30:36.392Z,27.67
2018-06-29T09:31:36.502Z,27.26
2018-06-29T09:32:36.599Z,27.26
2018-06-29T09:33:36.703Z,27.39
2018-06-29T09:34:36.806Z,27.47
2018-06-29T09:35:36.903Z,27.51
2018-06-29T09:36:37.008Z,27.66
2018-06-29T09:37:37.112Z,27.91
2018-06-29T09:38:37.222Z,27.95
2018-06-29T09:39:37.333Z,28.13
2018-06-29T09:40:37.443Z,28.23
2018-06-29T09:41:37.548Z,28.01
2018-06-29T09:42:37.725Z,28.11
2018-06-29T09:43:37.759Z,28.22
2018-06-29T09:44:37.867Z,28.28
2018-06-29T09:45:37.980Z,28.03
2018-06-29T09:46:38.081Z,27.94
2018-06-29T09:47:38.189Z,27.80
2018-06-29T09:48:38.299Z,27.73
2018-06-29T09:49:38.405Z,27.86
2018-06-29T09:50:38.510Z,27.95
2018-06-29T09:51:38.618Z,27.91
2018-06-29T09:52:38.725Z,28.06
2018-06-29T09:53:38.834Z,28.13
2018-06-29T09:54:38.940Z,28.23
2018-06-29T09:55:39.048Z,27.96
2018-06-29T09:56:39.146Z,27.89
2018-06-29T09:57:39.255Z,28.10
2018-06-29T09:58:39.363Z,28.25
2018-06-29T09:59:39.468Z,28.21
2018-06-29T10:00:39.616Z,28.26
2018-06-29T10:01:39.680Z,28.44
2018-06-29T10:02:39.789Z,28.51
2018-06-29T10:03:39.896Z,28.53
2018-06-29T10:04:40.005Z,28.54
2018-06-29T10:05:40.119Z,28.58
2018-06-29T10:06:40.217Z,28.59
2018-06-29T10:07:40.325Z,28.62
2018-06-29T10:08:40.433Z,28.68
2018-06-29T10:09:40.538Z,28.62
2018-06-29T10:10:40.646Z,28.75
2018-06-29T10:11:40.752Z,28.48
2018-06-29T10:12:40.859Z,28.50
2018-06-29T10:13:40.963Z,28.35
2018-06-29T10:14:41.067Z,28.38
2018-06-29T10:15:41.175Z,28.46
2018-06-29T10:16:41.282Z,28.54
2018-06-29T10:17:41.388Z,28.66
2018-06-29T10:18:41.494Z,28.65
2018-06-29T10:19:41.709Z,28.85
2018-06-29T10:20:41.705Z,28.96
2018-06-29T10:21:41.814Z,28.95
2018-06-29T10:22:41.922Z,29.00
2018-06-29T10:23:42.028Z,29.03
2018-06-29T10:24:42.134Z,29.00
2018-06-29T10:25:42.258Z,28.75
2018-06-29T10:26:42.366Z,28.63
2018-06-29T10:27:42.473Z,28.59
2018-06-29T10:28:42.579Z,28.50
2018-06-29T10:29:42.689Z,28.60
2018-06-29T10:30:42.827Z,28.58
2018-06-29T10:31:42.904Z,28.60
2018-06-29T10:32:43.010Z,28.68
2018-06-29T10:33:43.123Z,28.60
2018-06-29T10:34:43.227Z,28.56
2018-06-29T10:35:43.337Z,28.65
2018-06-29T10:36:43.538Z,28.88
2018-06-29T10:37:43.547Z,28.96
2018-06-29T10:38:43.704Z,28.48
2018-06-29T10:39:43.765Z,28.47
2018-06-29T10:40:43.883Z,28.54
2018-06-29T10:41:43.991Z,28.50
2018-06-29T10:42:44.105Z,28.73
2018-06-29T10:43:44.206Z,28.85
2018-06-29T10:44:44.384Z,29.08
2018-06-29T10:45:44.421Z,29.03
2018-06-29T10:46:44.527Z,29.20
2018-06-29T10:47:44.635Z,29.13
2018-06-29T10:48:44.734Z,29.33
2018-06-29T10:49:44.849Z,29.40
2018-06-29T10:50:44.959Z,29.68
2018-06-29T10:51:45.067Z,29.00
2018-06-29T10:52:45.202Z,28.56
2018-06-29T10:53:45.280Z,28.58
2018-06-29T10:54:45.393Z,28.77
2018-06-29T10:55:45.523Z,28.91
2018-06-29T10:56:45.630Z,28.90
2018-06-29T10:57:45.735Z,29.06
2018-06-29T10:58:45.894Z,29.08
2018-06-29T10:59:45.954Z,28.97
2018-06-29T11:00:46.063Z,29.03
2018-06-29T11:01:46.172Z,29.01
2018-06-29T11:02:46.283Z,29.11
2018-06-29T11:03:46.391Z,29.25
2018-06-29T11:04:46.500Z,29.19
2018-06-29T11:05:46.609Z,29.45
2018-06-29T11:06:46.717Z,29.43
2018-06-29T11:07:46.829Z,29.43
2018-06-29T11:08:46.946Z,29.31
2018-06-29T11:09:47.047Z,29.23
2018-06-29T11:10:47.155Z,29.29
2018-06-29T11:11:47.265Z,29.34
2018-06-29T11:12:47.370Z,29.47
2018-06-29T11:13:47.481Z,29.45
2018-06-29T11:14:47.591Z,29.62
2018-06-29T11:15:47.701Z,29.70
2018-06-29T11:16:47.809Z,29.66
2018-06-29T11:17:47.913Z,29.65
2018-06-29T11:18:48.024Z,29.55
2018-06-29T11:19:48.133Z,29.57
2018-06-29T11:20:48.240Z,29.53
2018-06-29T11:21:48.345Z,29.47
2018-06-29T11:22:48.454Z,29.56
2018-06-29T11:23:48.562Z,29.34
2018-06-29T11:24:48.668Z,29.41
2018-06-29T11:25:48.782Z,29.40
2018-06-29T11:26:48.890Z,29.37
2018-06-29T11:27:48.985Z,29.55
2018-06-29T11:28:49.147Z,29.57
2018-06-29T11:29:49.136Z,29.65
2018-06-29T11:30:49.232Z,29.66
2018-06-29T11:31:49.332Z,29.44
2018-06-29T11:32:49.452Z,29.26
2018-06-29T11:33:49.557Z,29.11
2018-06-29T11:34:49.700Z,29.20
2018-06-29T11:35:49.798Z,29.37
2018-06-29T11:36:49.944Z,29.60
2018-06-29T11:37:50.006Z,29.65
2018-06-29T11:38:50.117Z,29.84
2018-06-29T11:39:50.232Z,30.00
2018-06-29T11:40:50.430Z,30.19
2018-06-29T11:41:50.395Z,30.09
2018-06-29T11:42:50.518Z,30.16
2018-06-29T11:43:50.609Z,30.18
2018-06-29T11:44:50.724Z,29.97
2018-06-29T11:45:50.852Z,29.92
2018-06-29T11:46:50.998Z,30.03
2018-06-29T11:47:51.090Z,30.18
2018-06-29T11:48:51.213Z,30.23
2018-06-29T11:49:51.349Z,30.30
2018-06-29T11:50:51.453Z,30.46
2018-06-29T11:51:51.553Z,30.33
2018-06-29T11:52:51.672Z,30.29
2018-06-29T11:53:51.781Z,30.16
2018-06-29T11:54:51.881Z,30.29
2018-06-29T11:55:51.990Z,30.18
2018-06-29T11:56:52.094Z,29.70
2018-06-29T11:57:52.196Z,29.78
2018-06-29T11:58:52.302Z,29.79
2018-06-29T11:59:52.405Z,29.56
2018-06-29T12:00:52.515Z,29.62
2018-06-29T12:01:52.613Z,29.72
2018-06-29T12:02:52.722Z,29.82
2018-06-29T12:03:52.817Z,29.55
2018-06-29T12:04:52.935Z,29.25
2018-06-29T12:05:53.045Z,29.11
2018-06-29T12:06:53.322Z,29.10
2018-06-29T12:07:53.258Z,29.19
2018-06-29T12:08:53.366Z,29.23
2018-06-29T12:09:53.471Z,29.13
2018-06-29T12:10:53.582Z,29.40
2018-06-29T12:11:53.677Z,29.56
2018-06-29T12:12:53.786Z,29.81
2018-06-29T12:13:53.908Z,30.00
2018-06-29T12:14:54.024Z,30.19
2018-06-29T12:15:54.104Z,29.70
2018-06-29T12:16:54.209Z,29.77
2018-06-29T12:17:54.323Z,29.84
2018-06-29T12:18:54.433Z,29.90
2018-06-29T12:19:54.529Z,30.09
2018-06-29T12:20:54.644Z,30.33
2018-06-29T12:21:54.744Z,30.49
2018-06-29T12:22:54.855Z,30.65
2018-06-29T12:23:54.961Z,30.74
2018-06-29T12:24:55.058Z,30.72
2018-06-29T12:25:55.155Z,30.83
2018-06-29T12:26:55.257Z,30.84
2018-06-29T12:27:55.377Z,30.86
2018-06-29T12:28:55.473Z,30.81
2018-06-29T12:29:55.585Z,30.78
2018-06-29T12:30:55.696Z,30.72
2018-06-29T12:31:55.802Z,30.83
2018-06-29T12:32:55.900Z,30.93
2018-06-29T12:33:56.001Z,30.94
2018-06-29T12:34:56.106Z,30.84
2018-06-29T12:35:56.197Z,30.98
2018-06-29T12:36:56.295Z,31.08
2018-06-29T12:37:56.426Z,31.18
2018-06-29T12:38:56.485Z,31.13
2018-06-29T12:39:56.582Z,30.96
2018-06-29T12:40:56.690Z,30.93
2018-06-29T12:41:56.802Z,30.87
2018-06-29T12:42:56.909Z,30.62
2018-06-29T12:43:57.015Z,30.34
2018-06-29T12:44:57.119Z,30.23
2018-06-29T12:45:57.222Z,30.30
2018-06-29T12:46:57.327Z,30.37
2018-06-29T12:47:57.439Z,30.45
2018-06-29T12:48:57.541Z,30.38
2018-06-29T12:49:58.196Z,30.50
2018-06-29T12:50:57.753Z,30.65
2018-06-29T12:51:57.867Z,30.74
2018-06-29T12:52:57.985Z,30.87
2018-06-29T12:53:58.105Z,31.04